createdAt,value
2023-07-23T00:02:20.670Z,9.27
2023-07-23T00:04:48.845Z,9.17
2023-07-23T00:07:16.948Z,9.20
2023-07-23T00:09:45.088Z,9.43
2023-07-23T00:12:13.191Z,9.47
2023-07-23T00:14:42.645Z,9.20
2023-07-23T00:17:10.776Z,9.07
2023-07-23T00:19:38.902Z,8.93
2023-07-23T00:22:07.074Z,9.20
2023-07-23T00:24:35.367Z,9.80
2023-07-23T00:27:03.570Z,9.10
2023-07-23T00:29:31.717Z,9.63
2023-07-23T00:32:01.149Z,9.30
2023-07-23T00:34:30.152Z,9.20
2023-07-23T00:36:58.507Z,9.30
2023-07-23T00:39:26.850Z,9.37
2023-07-23T00:41:55.090Z,9.50
2023-07-23T00:44:23.204Z,9.60
2023-07-23T00:46:51.993Z,9.10
2023-07-23T00:49:22.509Z,8.90
2023-07-23T00:51:51.041Z,9.30
2023-07-23T00:54:19.623Z,9.37
2023-07-23T00:56:49.754Z,9.20
2023-07-23T00:59:19.434Z,9.63
2023-07-23T01:01:49.493Z,9.43
2023-07-23T01:04:18.427Z,9.40
2023-07-23T01:06:48.256Z,9.30
2023-07-23T01:09:18.773Z,9.40
2023-07-23T01:11:47.347Z,9.60
2023-07-23T01:14:15.460Z,9.10
2023-07-23T01:16:45.780Z,9.07
2023-07-23T01:19:14.771Z,9.00
2023-07-23T01:21:42.992Z,8.90
2023-07-23T01:24:12.838Z,9.13
2023-07-23T01:26:41.221Z,9.57
2023-07-23T01:29:11.137Z,9.30
2023-07-23T01:31:39.416Z,8.83
2023-07-23T01:34:07.754Z,9.20
2023-07-23T01:36:35.872Z,9.17
2023-07-23T01:39:04.207Z,9.20
2023-07-23T01:41:33.991Z,9.50
2023-07-23T01:44:03.090Z,9.43
2023-07-23T01:46:31.275Z,9.10
2023-07-23T01:48:59.438Z,9.23
2023-07-23T01:51:27.819Z,9.00
2023-07-23T01:53:56.252Z,9.47
2023-07-23T01:56:24.870Z,8.70
2023-07-23T01:58:54.384Z,8.90
2023-07-23T02:01:23.223Z,9.10
2023-07-23T02:03:51.556Z,8.90
2023-07-23T02:06:19.807Z,9.17
2023-07-23T02:08:47.910Z,8.50
2023-07-23T02:11:16.113Z,9.10
2023-07-23T02:13:45.572Z,9.30
2023-07-23T02:16:19.493Z,9.17
2023-07-23T02:18:47.780Z,8.73
2023-07-23T02:21:16.142Z,9.20
2023-07-23T02:23:45.890Z,8.80
2023-07-23T02:26:14.109Z,9.07
2023-07-23T02:28:44.694Z,9.00
2023-07-23T02:31:13.647Z,9.03
2023-07-23T02:33:43.287Z,8.80
2023-07-23T02:36:12.079Z,9.10
2023-07-23T02:38:40.527Z,9.07
2023-07-23T02:41:09.285Z,8.83
2023-07-23T02:43:37.573Z,8.67
2023-07-23T02:46:05.781Z,9.17
2023-07-23T02:48:34.130Z,8.93
2023-07-23T02:51:03.586Z,9.00
2023-07-23T02:53:31.811Z,8.93
2023-07-23T02:55:59.925Z,8.60
2023-07-23T02:58:28.143Z,9.37
2023-07-23T03:00:57.592Z,8.90
2023-07-23T03:03:26.581Z,9.13
2023-07-23T03:05:54.835Z,9.07
2023-07-23T03:08:24.378Z,8.80
2023-07-23T03:10:53.009Z,8.70
2023-07-23T03:13:21.319Z,8.93
2023-07-23T03:15:49.459Z,8.70
2023-07-23T03:18:17.639Z,8.70
2023-07-23T03:20:45.962Z,8.90
2023-07-23T03:23:14.132Z,8.97
2023-07-23T03:25:43.834Z,8.80
2023-07-23T03:28:11.961Z,9.07
2023-07-23T03:30:40.262Z,8.83
2023-07-23T03:33:08.454Z,8.97
2023-07-23T03:35:36.574Z,8.57
2023-07-23T03:38:04.732Z,8.97
2023-07-23T03:40:32.890Z,8.70
2023-07-23T03:43:02.348Z,8.80
2023-07-23T03:45:30.533Z,9.13
2023-07-23T03:47:59.008Z,8.83
2023-07-23T03:50:27.296Z,8.80
2023-07-23T03:52:55.642Z,8.80
2023-07-23T03:55:23.785Z,8.40
2023-07-23T03:57:51.916Z,9.00
2023-07-23T04:00:21.589Z,9.13
2023-07-23T04:02:49.760Z,8.70
2023-07-23T04:05:18.222Z,8.70
2023-07-23T04:07:46.343Z,8.60
2023-07-23T04:10:14.685Z,9.00
2023-07-23T04:12:42.826Z,9.00
2023-07-23T04:15:11.617Z,9.07
2023-07-23T04:17:41.117Z,8.70
2023-07-23T04:20:10.814Z,9.10
2023-07-23T04:22:39.030Z,8.90
2023-07-23T04:25:08.991Z,8.60
2023-07-23T04:27:37.121Z,8.50
2023-07-23T04:30:06.159Z,8.80
2023-07-23T04:32:34.370Z,8.50
2023-07-23T04:35:04.010Z,8.53
2023-07-23T04:37:32.178Z,8.53
2023-07-23T04:40:00.622Z,8.77
2023-07-23T04:42:28.750Z,8.90
2023-07-23T04:44:57.000Z,8.60
2023-07-23T04:47:25.126Z,9.00
2023-07-23T04:49:53.355Z,8.63
2023-07-23T04:52:22.811Z,8.60
2023-07-23T04:54:51.744Z,8.50
2023-07-23T04:57:20.066Z,8.90
2023-07-23T04:59:48.211Z,8.60
2023-07-23T05:02:16.320Z,8.70
2023-07-23T05:04:44.458Z,9.20
2023-07-23T05:07:12.583Z,8.70
2023-07-23T05:09:44.068Z,8.67
2023-07-23T05:12:12.261Z,8.67
2023-07-23T05:14:40.427Z,8.70
2023-07-23T05:17:08.632Z,8.60
2023-07-23T05:19:36.792Z,8.90
2023-07-23T05:22:05.588Z,8.70
2023-07-23T05:24:34.036Z,8.50
2023-07-23T05:27:03.536Z,8.73
2023-07-23T05:29:31.676Z,8.57
2023-07-23T05:31:59.788Z,8.70
2023-07-23T05:34:27.913Z,8.97
2023-07-23T05:36:56.052Z,8.40
2023-07-23T05:39:24.182Z,8.40
2023-07-23T05:41:52.790Z,8.50
2023-07-23T05:44:22.255Z,8.83
2023-07-23T05:46:50.397Z,8.50
2023-07-23T05:49:18.580Z,8.80
2023-07-23T05:51:47.152Z,8.53
2023-07-23T05:54:15.291Z,8.70
2023-07-23T05:56:43.423Z,8.30
2023-07-23T05:59:11.605Z,8.57
2023-07-23T06:01:41.081Z,9.10
2023-07-23T06:04:09.559Z,8.77
2023-07-23T06:06:37.721Z,8.70
2023-07-23T06:09:05.872Z,8.60
2023-07-23T06:11:37.106Z,9.00
2023-07-23T06:14:07.441Z,8.60
2023-07-23T06:16:35.611Z,8.90
2023-07-23T06:19:05.154Z,8.70
2023-07-23T06:21:33.371Z,8.80
2023-07-23T06:24:01.502Z,9.13
2023-07-23T06:26:30.481Z,8.77
2023-07-23T06:28:58.602Z,8.60
2023-07-23T06:31:27.151Z,8.60
2023-07-23T06:33:55.553Z,8.50
2023-07-23T06:36:25.337Z,8.77
2023-07-23T06:38:53.447Z,9.00
2023-07-23T06:41:21.586Z,8.80
2023-07-23T06:43:49.702Z,8.67
2023-07-23T06:46:21.356Z,8.70
2023-07-23T06:48:50.127Z,8.50
2023-07-23T06:51:18.272Z,8.70
2023-07-23T06:53:47.790Z,8.67
2023-07-23T06:56:17.540Z,8.90
2023-07-23T06:58:45.700Z,8.70
2023-07-23T07:01:13.939Z,9.13
2023-07-23T07:03:42.062Z,8.53
2023-07-23T07:06:10.223Z,8.60
2023-07-23T07:08:38.390Z,8.70
2023-07-23T07:11:11.228Z,8.40
2023-07-23T07:13:40.089Z,8.80
2023-07-23T07:16:08.282Z,8.70
2023-07-23T07:18:36.448Z,9.10
2023-07-23T07:21:04.716Z,8.47
2023-07-23T07:23:33.824Z,8.60
2023-07-23T07:26:02.511Z,8.57
2023-07-23T07:28:34.624Z,8.53
2023-07-23T07:31:04.343Z,8.40
2023-07-23T07:33:32.757Z,9.43
2023-07-23T07:36:02.915Z,8.87
2023-07-23T07:38:31.296Z,9.00
2023-07-23T07:40:59.559Z,8.60
2023-07-23T07:43:27.928Z,8.50
2023-07-23T07:46:01.506Z,8.50
2023-07-23T07:48:31.368Z,8.50
2023-07-23T07:51:01.561Z,8.20
2023-07-23T07:53:29.928Z,8.67
2023-07-23T07:55:58.499Z,9.00
2023-07-23T07:58:27.098Z,8.50
2023-07-23T08:00:58.052Z,9.03
2023-07-23T08:03:29.457Z,8.70
2023-07-23T08:05:59.365Z,8.60
2023-07-23T08:08:30.599Z,8.40
2023-07-23T08:11:05.896Z,8.57
2023-07-23T08:13:37.567Z,8.60
2023-07-23T08:16:08.952Z,8.57
2023-07-23T08:18:38.065Z,8.70
2023-07-23T08:21:07.201Z,8.60
2023-07-23T08:23:37.409Z,8.40
2023-07-23T08:26:07.972Z,8.40
2023-07-23T08:28:41.081Z,8.83
2023-07-23T08:31:11.275Z,8.47
2023-07-23T08:33:44.183Z,8.63
2023-07-23T08:36:13.029Z,8.60
2023-07-23T08:38:42.031Z,8.70
2023-07-23T08:41:24.955Z,8.60
2023-07-23T08:44:37.858Z,8.40
2023-07-23T08:47:13.105Z,9.10
2023-07-23T08:49:43.361Z,8.90
2023-07-23T08:52:13.859Z,8.53
2023-07-23T08:54:42.947Z,9.33
2023-07-23T08:57:11.781Z,8.50
2023-07-23T08:59:41.740Z,8.27
2023-07-23T09:02:13.355Z,8.60
2023-07-23T09:04:41.641Z,8.93
2023-07-23T09:07:13.209Z,8.70
2023-07-23T09:09:41.414Z,8.80
2023-07-23T09:12:10.519Z,8.90
2023-07-23T09:14:44.165Z,8.53
2023-07-23T09:17:21.010Z,9.33
2023-07-23T09:19:50.048Z,8.83
2023-07-23T09:22:19.313Z,8.80
2023-07-23T09:24:47.536Z,8.97
2023-07-23T09:27:17.183Z,8.87
2023-07-23T09:29:45.376Z,8.93
2023-07-23T09:32:28.086Z,9.10
2023-07-23T09:34:57.035Z,9.10
2023-07-23T09:37:25.482Z,8.53
2023-07-23T09:39:57.479Z,8.73
2023-07-23T09:42:26.406Z,8.77
2023-07-23T09:44:54.895Z,9.10
2023-07-23T09:47:27.200Z,8.97
2023-07-23T09:49:55.769Z,9.00
2023-07-23T09:52:25.577Z,8.90
2023-07-23T09:54:54.455Z,8.77
2023-07-23T09:57:23.787Z,8.80
2023-07-23T09:59:52.691Z,9.13
2023-07-23T10:02:23.971Z,8.90
2023-07-23T10:04:54.237Z,8.87
2023-07-23T10:07:23.665Z,8.90
2023-07-23T10:09:52.835Z,8.80
2023-07-23T10:12:23.213Z,8.70
2023-07-23T10:14:52.426Z,9.13
2023-07-23T10:17:21.676Z,8.80
2023-07-23T10:19:50.761Z,8.50
2023-07-23T10:22:20.652Z,8.83
2023-07-23T10:24:53.721Z,9.00
2023-07-23T10:27:22.280Z,9.00
2023-07-23T10:30:18.646Z,8.93
2023-07-23T10:32:48.945Z,8.87
2023-07-23T10:36:00.718Z,8.87
2023-07-23T10:38:32.686Z,9.00
2023-07-23T10:41:01.967Z,9.07
2023-07-23T10:43:44.936Z,9.00
2023-07-23T10:46:15.129Z,9.20
2023-07-23T10:48:47.999Z,8.87
2023-07-23T10:51:19.201Z,8.80
2023-07-23T10:54:03.287Z,8.60
2023-07-23T10:56:35.372Z,8.70
2023-07-23T10:59:07.309Z,8.50
2023-07-23T11:01:37.992Z,8.70
2023-07-23T11:04:11.566Z,9.00
2023-07-23T11:06:42.577Z,9.10
2023-07-23T11:09:13.088Z,9.50
2023-07-23T11:11:43.323Z,9.27
2023-07-23T11:14:22.326Z,9.07
2023-07-23T11:16:52.684Z,9.10
2023-07-23T11:19:22.939Z,9.00
2023-07-23T11:21:53.226Z,9.00
2023-07-23T11:24:23.378Z,9.00
2023-07-23T11:26:52.422Z,8.80
2023-07-23T11:29:21.004Z,8.90
2023-07-23T11:31:49.972Z,9.13
2023-07-23T11:34:18.964Z,8.90
2023-07-23T11:36:53.224Z,9.00
2023-07-23T11:39:25.162Z,9.17
2023-07-23T11:41:54.774Z,8.80
2023-07-23T11:44:24.021Z,8.60
2023-07-23T11:47:01.184Z,8.67
2023-07-23T11:49:29.434Z,8.70
2023-07-23T11:51:59.781Z,8.60
2023-07-23T11:54:29.250Z,8.53
2023-07-23T11:56:57.446Z,8.93
2023-07-23T11:59:25.540Z,8.47
2023-07-23T12:01:57.434Z,8.60
2023-07-23T12:04:25.626Z,8.90
2023-07-23T12:06:54.368Z,8.70
2023-07-23T12:09:22.530Z,9.43
2023-07-23T12:11:52.727Z,8.77
2023-07-23T12:14:20.924Z,8.77
2023-07-23T12:16:50.847Z,8.50
2023-07-23T12:19:20.485Z,8.80
2023-07-23T12:21:50.348Z,8.50
2023-07-23T12:24:21.831Z,8.70
2023-07-23T12:26:54.408Z,8.70
2023-07-23T12:29:24.068Z,9.33
2023-07-23T12:32:10.545Z,9.13
2023-07-23T12:34:40.332Z,9.00
2023-07-23T12:37:09.453Z,10.37
2023-07-23T12:39:37.712Z,9.07
2023-07-23T12:42:08.352Z,9.40
2023-07-23T12:44:36.781Z,8.50
2023-07-23T12:47:05.003Z,8.73
2023-07-23T12:49:33.147Z,8.40
2023-07-23T12:52:02.072Z,8.27
2023-07-23T12:54:31.086Z,8.43
2023-07-23T12:56:59.499Z,8.97
2023-07-23T12:59:29.053Z,8.67
2023-07-23T13:01:57.202Z,8.63
2023-07-23T13:04:25.419Z,9.20
2023-07-23T13:06:53.560Z,8.70
2023-07-23T13:09:21.684Z,8.57
2023-07-23T13:11:49.833Z,8.70
2023-07-23T13:14:18.174Z,8.40
2023-07-23T13:16:47.687Z,8.50
2023-07-23T13:19:15.848Z,8.57
2023-07-23T13:21:43.963Z,8.80
2023-07-23T13:24:12.921Z,8.90
2023-07-23T13:26:42.029Z,8.93
2023-07-23T13:29:10.347Z,8.80
2023-07-23T13:31:38.487Z,8.93
2023-07-23T13:34:07.930Z,8.70
2023-07-23T13:36:36.665Z,8.70
2023-07-23T13:39:05.029Z,9.30
2023-07-23T13:41:33.184Z,8.80
2023-07-23T13:44:02.779Z,9.20
2023-07-23T13:46:31.557Z,8.50
2023-07-23T13:48:59.927Z,8.80
2023-07-23T13:51:29.384Z,9.23
2023-07-23T13:53:57.510Z,8.90
2023-07-23T13:56:25.679Z,8.60
2023-07-23T13:58:53.804Z,8.80
2023-07-23T14:01:22.040Z,8.80
2023-07-23T14:03:50.222Z,8.60
2023-07-23T14:06:20.668Z,9.10
2023-07-23T14:08:50.241Z,9.03
2023-07-23T14:11:18.440Z,9.40
2023-07-23T14:13:46.660Z,9.00
2023-07-23T14:16:14.813Z,9.17
2023-07-23T14:18:42.994Z,9.03
2023-07-23T14:21:11.469Z,8.80
2023-07-23T14:23:39.619Z,9.10
2023-07-23T14:26:09.082Z,9.30
2023-07-23T14:28:37.981Z,9.10
2023-07-23T14:31:06.683Z,9.13
2023-07-23T14:33:34.842Z,8.80
2023-07-23T14:36:04.111Z,9.00
2023-07-23T14:38:32.454Z,9.03
2023-07-23T14:41:01.459Z,9.13
2023-07-23T14:43:31.938Z,8.90
2023-07-23T14:46:00.193Z,9.23
2023-07-23T14:48:28.646Z,9.23
2023-07-23T14:50:56.802Z,8.70
2023-07-23T14:53:24.963Z,9.00
2023-07-23T14:55:53.111Z,9.37
2023-07-23T14:58:22.296Z,9.43
2023-07-23T15:00:51.783Z,9.40
2023-07-23T15:03:20.695Z,9.30
2023-07-23T15:05:48.944Z,9.17
2023-07-23T15:08:17.171Z,9.60
2023-07-23T15:10:45.310Z,9.60
2023-07-23T15:13:14.188Z,9.20
2023-07-23T15:15:43.158Z,8.90
2023-07-23T15:18:13.455Z,8.53
2023-07-23T15:20:42.315Z,8.80
2023-07-23T15:23:11.325Z,8.97
2023-07-23T15:25:40.240Z,8.80
2023-07-23T15:28:09.403Z,8.70
2023-07-23T15:30:37.638Z,8.80
2023-07-23T15:33:05.812Z,9.10
2023-07-23T15:35:35.266Z,9.20
2023-07-23T15:38:03.394Z,9.13
2023-07-23T15:40:31.563Z,8.70
2023-07-23T15:42:59.683Z,9.03
2023-07-23T15:45:27.953Z,8.70
2023-07-23T15:47:56.095Z,8.77
2023-07-23T15:50:24.230Z,9.00
2023-07-23T15:52:53.702Z,8.93
2023-07-23T15:55:21.979Z,8.57
2023-07-23T15:57:50.137Z,8.47
2023-07-23T16:00:18.567Z,8.60
2023-07-23T16:02:46.766Z,8.40
2023-07-23T16:05:15.134Z,8.60
2023-07-23T16:07:43.260Z,8.50
2023-07-23T16:10:13.013Z,8.80
2023-07-23T16:12:41.288Z,8.50
2023-07-23T16:15:10.731Z,8.47
2023-07-23T16:17:39.008Z,8.63
2023-07-23T16:20:09.093Z,8.43
2023-07-23T16:22:37.414Z,8.33
2023-07-23T16:25:06.624Z,8.40
2023-07-23T16:27:36.212Z,8.10
2023-07-23T16:30:04.694Z,8.47
2023-07-23T16:32:37.813Z,8.47
2023-07-23T16:35:07.930Z,8.00
2023-07-23T16:37:41.671Z,8.00
2023-07-23T16:40:13.398Z,8.20
2023-07-23T16:42:49.622Z,8.13
2023-07-23T16:45:19.017Z,7.90
2023-07-23T16:47:47.353Z,8.00
2023-07-23T16:50:15.541Z,7.90
2023-07-23T16:52:43.781Z,8.10
2023-07-23T16:55:12.863Z,8.13
2023-07-23T16:57:43.687Z,8.30
2023-07-23T17:00:13.113Z,8.13
2023-07-23T17:02:41.290Z,8.00
2023-07-23T17:05:10.650Z,8.20
2023-07-23T17:07:38.791Z,7.90
2023-07-23T17:10:07.924Z,8.20
2023-07-23T17:12:36.223Z,8.50
2023-07-23T17:15:07.261Z,8.27
2023-07-23T17:17:35.428Z,8.30
2023-07-23T17:20:03.667Z,8.30
2023-07-23T17:22:31.759Z,7.90
2023-07-23T17:25:00.017Z,8.43
2023-07-23T17:27:28.179Z,8.43
2023-07-23T17:29:56.288Z,8.27
2023-07-23T17:32:26.376Z,8.33
2023-07-23T17:34:54.801Z,8.43
2023-07-23T17:37:22.938Z,8.50
2023-07-23T17:39:51.050Z,8.50
2023-07-23T17:42:19.201Z,8.70
2023-07-23T17:44:47.317Z,8.63
2023-07-23T17:47:15.442Z,8.60
2023-07-23T17:49:44.904Z,9.10
2023-07-23T17:52:13.015Z,8.93
2023-07-23T17:54:41.349Z,8.80
2023-07-23T17:57:09.459Z,8.73
2023-07-23T17:59:37.593Z,8.60
2023-07-23T18:02:06.605Z,8.43
2023-07-23T18:04:34.782Z,8.73
2023-07-23T18:07:04.351Z,8.67
2023-07-23T18:09:32.921Z,8.30
2023-07-23T18:12:01.033Z,8.83
2023-07-23T18:14:29.478Z,8.30
2023-07-23T18:16:57.617Z,8.63
2023-07-23T18:19:25.826Z,8.70
2023-07-23T18:21:55.149Z,8.47
2023-07-23T18:24:25.807Z,8.50
2023-07-23T18:26:54.034Z,8.17
2023-07-23T18:29:22.218Z,8.37
2023-07-23T18:31:50.904Z,8.80
2023-07-23T18:34:19.016Z,8.77
2023-07-23T18:36:47.117Z,8.90
2023-07-23T18:39:15.264Z,8.70
2023-07-23T18:41:44.757Z,8.30
2023-07-23T18:44:13.102Z,8.40
2023-07-23T18:46:41.532Z,8.90
2023-07-23T18:49:09.786Z,8.83
2023-07-23T18:51:39.434Z,9.03
2023-07-23T18:54:07.595Z,8.70
2023-07-23T18:56:35.750Z,8.83
2023-07-23T18:59:05.228Z,8.90
2023-07-23T19:01:33.394Z,9.10
2023-07-23T19:04:01.568Z,9.00
2023-07-23T19:06:29.968Z,9.07
2023-07-23T19:08:58.466Z,8.80
2023-07-23T19:11:26.653Z,9.03
2023-07-23T19:13:54.779Z,9.17
2023-07-23T19:16:24.278Z,8.90
2023-07-23T19:18:52.679Z,8.50
2023-07-23T19:21:20.795Z,8.60
2023-07-23T19:23:49.276Z,8.60
2023-07-23T19:26:17.411Z,8.80
2023-07-23T19:28:45.533Z,8.80
2023-07-23T19:31:14.609Z,8.70
2023-07-23T19:33:44.137Z,8.40
2023-07-23T19:36:12.670Z,8.60
2023-07-23T19:38:40.947Z,8.70
2023-07-23T19:41:09.226Z,12.10
2023-07-23T19:43:37.346Z,20.13
2023-07-23T19:46:05.578Z,27.67
2023-07-23T19:48:33.695Z,28.80
2023-07-23T19:51:03.228Z,19.33
2023-07-23T19:53:31.383Z,17.47
2023-07-23T19:55:59.503Z,14.10
2023-07-23T19:58:27.618Z,12.23
2023-07-23T20:00:55.793Z,11.17
2023-07-23T20:03:24.063Z,9.97
2023-07-23T20:05:55.005Z,9.97
2023-07-23T20:08:25.271Z,9.57
2023-07-23T20:10:53.379Z,9.33
2023-07-23T20:13:21.497Z,10.67
2023-07-23T20:15:50.690Z,9.40
2023-07-23T20:18:18.824Z,9.50
2023-07-23T20:20:50.296Z,10.00
2023-07-23T20:23:18.658Z,13.37
2023-07-23T20:25:53.231Z,12.93
2023-07-23T20:28:23.327Z,12.23
2023-07-23T20:30:52.901Z,11.70
2023-07-23T20:33:21.806Z,11.07
2023-07-23T20:35:51.078Z,11.17
2023-07-23T20:38:20.030Z,10.90
2023-07-23T20:40:49.336Z,10.57
2023-07-23T20:43:19.221Z,10.20
2023-07-23T20:45:47.358Z,9.70
2023-07-23T20:48:15.505Z,9.80
2023-07-23T20:50:45.629Z,10.10
2023-07-23T20:53:13.867Z,9.70
2023-07-23T20:55:42.087Z,9.10
2023-07-23T20:58:10.444Z,9.60
2023-07-23T21:00:39.956Z,11.70
2023-07-23T21:03:08.195Z,35.60
2023-07-23T21:05:36.650Z,31.37
2023-07-23T21:08:04.928Z,24.80
2023-07-23T21:10:35.016Z,18.80
2023-07-23T21:13:03.223Z,14.80
2023-07-23T21:15:33.239Z,13.77
2023-07-23T21:18:03.075Z,12.63
2023-07-23T21:20:32.242Z,11.00
2023-07-23T21:23:00.466Z,10.67
2023-07-23T21:25:28.637Z,10.10
2023-07-23T21:27:56.803Z,9.70
2023-07-23T21:30:27.056Z,9.30
2023-07-23T21:32:55.602Z,9.10
2023-07-23T21:35:25.208Z,9.20
2023-07-23T21:37:53.535Z,8.90
2023-07-23T21:40:22.096Z,8.90
2023-07-23T21:42:50.725Z,8.80
2023-07-23T21:45:19.693Z,8.87
2023-07-23T21:47:49.962Z,8.50
2023-07-23T21:50:18.536Z,8.73
2023-07-23T21:52:48.807Z,8.90
2023-07-23T21:55:17.852Z,8.87
2023-07-23T21:57:46.475Z,8.80
2023-07-23T22:00:15.746Z,8.77
2023-07-23T22:02:44.409Z,8.57
2023-07-23T22:05:13.061Z,8.73
2023-07-23T22:07:41.342Z,8.40
2023-07-23T22:10:12.143Z,8.73
2023-07-23T22:12:40.562Z,8.53
2023-07-23T22:15:10.453Z,8.90
2023-07-23T22:17:37.958Z,8.83
2023-07-23T22:20:07.999Z,8.60
2023-07-23T22:22:36.317Z,8.53
2023-07-23T22:25:04.813Z,8.90
2023-07-23T22:27:34.423Z,8.73
2023-07-23T22:30:12.017Z,8.43
2023-07-23T22:32:43.512Z,8.30
2023-07-23T22:35:11.701Z,8.70
2023-07-23T22:37:39.820Z,8.70
2023-07-23T22:40:10.221Z,9.00
2023-07-23T22:42:42.435Z,8.70
2023-07-23T22:45:14.200Z,8.70
2023-07-23T22:47:42.599Z,9.03
2023-07-23T22:50:11.572Z,8.70
2023-07-23T22:52:40.001Z,8.50
2023-07-23T22:55:09.378Z,8.63
2023-07-23T22:57:39.672Z,8.30
2023-07-23T23:00:11.284Z,8.60
2023-07-23T23:02:39.834Z,8.70
2023-07-23T23:05:09.068Z,8.50
2023-07-23T23:07:37.189Z,8.60
2023-07-23T23:10:06.084Z,8.70
2023-07-23T23:12:34.316Z,8.47
2023-07-23T23:15:05.088Z,8.60
2023-07-23T23:17:33.562Z,8.60
2023-07-23T23:20:01.737Z,8.80
2023-07-23T23:22:30.017Z,8.77
2023-07-23T23:24:58.251Z,8.77
2023-07-23T23:27:33.281Z,8.30
2023-07-23T23:30:03.435Z,8.60
2023-07-23T23:32:31.776Z,8.57
2023-07-23T23:35:00.045Z,8.60
2023-07-23T23:37:28.159Z,8.60
2023-07-23T23:39:56.304Z,8.40
2023-07-23T23:42:24.454Z,8.73
2023-07-23T23:44:52.783Z,8.50
2023-07-23T23:47:22.313Z,8.70
2023-07-23T23:49:50.785Z,8.50
2023-07-23T23:52:18.905Z,8.60
2023-07-23T23:54:47.146Z,8.70
2023-07-23T23:57:15.478Z,8.40
2023-07-23T23:59:43.820Z,8.57
